Time,TemperatureF,DewpointF,PressureIn,WindDirection,WindDirectionDegrees,WindSpeedMPH,WindSpeedGustMPH,Humidity,HourlyPrecipIn,Conditions,Clouds,dailyrainin,SolarRadiationWatts/m^2,SoftwareType,DateUTC
2018-05-23 00:01:00,62.4,62.1,29.93,SW,217,0.0,0.0,99,0.00,,,0.00,0.0,meteobridge,2018-05-23 04:01:00,
2018-05-23 00:07:00,62.2,61.9,29.93,SW,217,0.0,0.0,99,0.00,,,0.00,0.0,meteobridge,2018-05-23 04:07:00,
2018-05-23 00:13:00,62.2,61.9,29.93,SW,217,0.0,0.0,99,0.00,,,0.00,0.0,meteobridge,2018-05-23 04:13:00,
2018-05-23 00:20:00,62.1,61.7,29.93,SW,217,0.0,0.0,99,0.00,,,0.00,0.0,meteobridge,2018-05-23 04:20:00,
2018-05-23 00:26:00,62.1,61.7,29.93,SSW,209,0.0,0.0,99,0.00,,,0.00,0.0,meteobridge,2018-05-23 04:26:00,
2018-05-23 00:32:00,62.1,61.7,29.93,SW,217,0.0,0.0,99,0.00,,,0.00,0.0,meteobridge,2018-05-23 04:32:00,
2018-05-23 00:39:00,61.9,61.5,29.93,SW,217,0.0,0.0,99,0.00,,,0.00,0.0,meteobridge,2018-05-23 04:39:00,
2018-05-23 00:45:00,61.9,61.5,29.93,SW,219,0.0,0.0,99,0.00,,,0.00,0.0,meteobridge,2018-05-23 04:45:00,
2018-05-23 00:51:00,61.9,61.5,29.93,NNW,342,0.9,1.0,99,0.00,,,0.00,0.0,meteobridge,2018-05-23 04:51:00,
2018-05-23 00:58:00,61.9,61.9,29.93,NNW,343,0.0,0.0,100,0.00,,,0.00,0.0,meteobridge,2018-05-23 04:58:00,
2018-05-23 01:04:00,62.1,62.1,29.93,NNW,343,0.0,0.0,100,0.00,,,0.00,0.0,meteobridge,2018-05-23 05:04:00,
2018-05-23 01:10:00,62.1,62.1,29.93,NNW,343,0.0,0.0,100,0.00,,,0.00,0.0,meteobridge,2018-05-23 05:10:00,
2018-05-23 01:17:00,62.1,62.1,29.93,NNW,343,0.0,0.0,100,0.00,,,0.00,0.0,meteobridge,2018-05-23 05:17:00,
2018-05-23 01:23:00,62.1,62.1,29.93,NNW,343,0.0,0.0,100,0.00,,,0.00,0.0,meteobridge,2018-05-23 05:23:00,
2018-05-23 01:29:00,62.1,62.1,29.93,NNW,343,0.0,0.0,100,0.00,,,0.00,0.0,meteobridge,2018-05-23 05:29:00,
2018-05-23 01:36:00,62.1,62.1,29.93,NNW,343,0.0,0.0,100,0.00,,,0.00,0.0,meteobridge,2018-05-23 05:36:00,
2018-05-23 01:43:00,62.2,62.2,29.93,NNW,343,0.0,0.0,100,0.00,,,0.00,0.0,meteobridge,2018-05-23 05:43:00,
2018-05-23 01:49:00,62.2,62.2,29.93,NNW,342,0.0,0.0,100,0.00,,,0.00,0.0,meteobridge,2018-05-23 05:49:00,
2018-05-23 01:56:00,62.4,62.4,29.93,NNW,342,0.0,0.0,100,0.00,,,0.00,0.0,meteobridge,2018-05-23 05:56:00,
2018-05-23 02:03:00,62.6,62.6,29.93,NNW,342,0.0,0.0,100,0.00,,,0.00,0.0,meteobridge,2018-05-23 06:03:00,
2018-05-23 02:09:00,62.6,62.6,29.93,NNW,342,0.0,0.0,100,0.00,,,0.00,0.0,meteobridge,2018-05-23 06:09:00,
2018-05-23 02:15:00,62.6,62.6,29.93,NNW,342,0.0,0.0,100,0.00,,,0.00,0.0,meteobridge,2018-05-23 06:15:00,
2018-05-23 02:22:00,62.6,62.6,29.93,NNW,342,0.0,0.0,100,0.00,,,0.00,0.0,meteobridge,2018-05-23 06:22:00,
2018-05-23 02:28:00,62.4,62.4,29.93,NNW,342,0.0,0.0,100,0.00,,,0.00,0.0,meteobridge,2018-05-23 06:28:00,
2018-05-23 02:34:00,62.4,62.4,29.93,NNW,342,0.0,0.0,100,0.00,,,0.00,0.0,meteobridge,2018-05-23 06:34:00,
2018-05-23 02:41:00,62.2,62.2,29.93,NNW,342,0.0,0.0,100,0.00,,,0.00,0.0,meteobridge,2018-05-23 06:41:00,
2018-05-23 02:48:00,62.2,62.2,29.93,NNW,342,0.0,0.0,100,0.00,,,0.00,0.0,meteobridge,2018-05-23 06:48:00,
2018-05-23 02:54:00,62.1,62.1,29.93,NNW,342,0.0,0.0,100,0.00,,,0.00,0.0,meteobridge,2018-05-23 06:54:00,
2018-05-23 03:00:00,62.1,62.1,29.93,NNW,342,0.0,0.0,100,0.00,,,0.00,0.0,meteobridge,2018-05-23 07:00:00,
2018-05-23 03:07:00,62.1,62.1,29.93,NNW,342,0.0,0.0,100,0.00,,,0.00,0.0,meteobridge,2018-05-23 07:07:00,
2018-05-23 03:13:00,62.1,62.1,29.93,NNW,342,0.0,0.0,100,0.00,,,0.00,0.0,meteobridge,2018-05-23 07:13:00,
2018-05-23 03:20:00,61.9,61.9,29.93,NNW,342,0.0,0.0,100,0.00,,,0.00,0.0,meteobridge,2018-05-23 07:20:00,
2018-05-23 03:26:00,61.9,61.9,29.93,West,271,2.9,4.0,100,0.00,,,0.00,0.0,meteobridge,2018-05-23 07:26:00,
2018-05-23 03:32:00,61.9,61.9,29.93,West,274,0.0,0.0,100,0.00,,,0.00,0.0,meteobridge,2018-05-23 07:32:00,
2018-05-23 03:39:00,61.5,61.5,29.93,West,274,0.0,0.0,100,0.00,,,0.00,0.0,meteobridge,2018-05-23 07:39:00,
2018-05-23 03:46:00,61.5,61.5,29.94,West,274,0.0,0.0,100,0.00,,,0.00,0.0,meteobridge,2018-05-23 07:46:00,
2018-05-23 03:52:00,61.5,61.5,29.94,West,274,0.0,0.0,100,0.00,,,0.00,0.0,meteobridge,2018-05-23 07:52:00,
2018-05-23 03:58:00,61.5,61.5,29.94,West,277,0.0,0.0,100,0.00,,,0.00,0.0,meteobridge,2018-05-23 07:58:00,
2018-05-23 04:05:00,61.3,61.3,29.94,West,277,0.0,0.0,100,0.00,,,0.00,0.0,meteobridge,2018-05-23 08:05:00,
2018-05-23 04:11:00,61.3,61.3,29.94,West,277,0.0,1.0,100,0.00,,,0.00,0.0,meteobridge,2018-05-23 08:11:00,
2018-05-23 04:18:00,61.3,61.3,29.94,West,278,0.0,0.0,100,0.00,,,0.00,0.0,meteobridge,2018-05-23 08:18:00,
2018-05-23 04:24:00,61.2,61.2,29.94,West,278,0.0,0.0,100,0.00,,,0.00,0.0,meteobridge,2018-05-23 08:24:00,
2018-05-23 04:31:00,61.2,61.2,29.95,West,278,0.0,0.0,100,0.00,,,0.00,0.0,meteobridge,2018-05-23 08:31:00,
2018-05-23 04:38:00,61.2,61.2,29.95,West,278,0.0,0.0,100,0.00,,,0.00,0.0,meteobridge,2018-05-23 08:38:00,
2018-05-23 04:44:00,61.2,61.2,29.96,West,278,0.0,0.0,100,0.00,,,0.00,0.0,meteobridge,2018-05-23 08:44:00,
2018-05-23 04:51:00,61.2,61.2,29.96,West,278,0.0,0.0,100,0.00,,,0.00,0.0,meteobridge,2018-05-23 08:51:00,
2018-05-23 04:57:00,61.2,61.2,29.96,West,272,0.0,0.0,100,0.00,,,0.00,0.0,meteobridge,2018-05-23 08:57:00,
2018-05-23 05:03:00,61.2,61.2,29.96,West,278,0.0,0.0,100,0.00,,,0.00,0.0,meteobridge,2018-05-23 09:03:00,
2018-05-23 05:09:00,61.2,61.2,29.96,West,272,0.0,0.0,100,0.00,,,0.00,0.0,meteobridge,2018-05-23 09:09:00,
2018-05-23 05:17:00,61.2,61.2,29.96,West,278,0.0,0.0,100,0.00,,,0.00,0.0,meteobridge,2018-05-23 09:17:00,
2018-05-23 05:23:00,61.2,61.2,29.96,West,278,0.0,0.0,100,0.00,,,0.00,0.0,meteobridge,2018-05-23 09:23:00,
2018-05-23 05:30:00,61.2,61.2,29.97,West,278,0.0,0.0,100,0.00,,,0.00,0.0,meteobridge,2018-05-23 09:30:00,
2018-05-23 05:36:00,61.2,61.2,29.97,West,275,0.0,0.0,100,0.00,,,0.00,0.0,meteobridge,2018-05-23 09:36:00,
2018-05-23 05:43:00,61.0,61.0,29.97,West,268,0.0,3.0,100,0.00,,,0.00,0.0,meteobridge,2018-05-23 09:43:00,
2018-05-23 05:49:00,61.0,61.0,29.97,West,274,0.0,0.0,100,0.00,,,0.00,0.0,meteobridge,2018-05-23 09:49:00,
2018-05-23 05:55:00,61.0,61.0,29.97,WNW,291,0.0,1.0,100,0.00,,,0.00,0.0,meteobridge,2018-05-23 09:55:00,
2018-05-23 06:02:00,61.0,61.0,29.97,North,0,0.0,5.0,100,0.00,,,0.00,0.0,meteobridge,2018-05-23 10:02:00,
2018-05-23 06:08:00,60.4,60.4,29.97,WNW,287,0.0,3.0,100,0.00,,,0.00,0.0,meteobridge,2018-05-23 10:08:00,
2018-05-23 06:14:00,59.9,59.9,29.99,NNW,329,2.0,2.0,100,0.01,,,0.01,0.0,meteobridge,2018-05-23 10:14:00,
2018-05-23 06:20:00,59.5,59.5,29.99,WNW,298,0.0,2.0,100,0.01,,,0.01,0.0,meteobridge,2018-05-23 10:20:00,
2018-05-23 06:26:00,59.5,59.5,29.99,North,8,2.0,5.0,100,0.01,,,0.01,0.0,meteobridge,2018-05-23 10:26:00,
2018-05-23 06:33:00,59.2,59.2,29.99,North,349,0.0,1.0,100,0.01,,,0.01,0.0,meteobridge,2018-05-23 10:33:00,
2018-05-23 06:39:00,59.0,59.0,29.99,NW,308,2.0,6.0,100,0.01,,,0.01,0.0,meteobridge,2018-05-23 10:39:00,
2018-05-23 06:45:00,58.8,58.8,30.01,North,0,0.0,0.0,100,0.01,,,0.01,0.0,meteobridge,2018-05-23 10:45:00,
2018-05-23 06:51:00,58.8,58.8,30.01,North,356,0.0,0.0,100,0.01,,,0.01,5.0,meteobridge,2018-05-23 10:51:00,
2018-05-23 06:58:00,58.8,58.8,30.01,NW,318,0.0,3.0,100,0.01,,,0.01,5.0,meteobridge,2018-05-23 10:58:00,
2018-05-23 07:04:00,58.8,58.8,30.01,NW,311,0.0,3.0,100,0.01,,,0.01,18.0,meteobridge,2018-05-23 11:04:00,
2018-05-23 07:10:00,58.6,58.6,30.03,NW,309,0.9,2.0,100,0.01,,,0.01,21.0,meteobridge,2018-05-23 11:10:00,
2018-05-23 07:17:00,58.6,58.6,30.03,West,277,0.0,0.0,100,0.00,,,0.01,26.0,meteobridge,2018-05-23 11:17:00,
2018-05-23 07:23:00,58.6,58.6,30.03,WNW,282,0.0,0.0,100,0.00,,,0.01,35.0,meteobridge,2018-05-23 11:23:00,
2018-05-23 07:30:00,58.5,58.5,30.03,NW,326,0.0,0.0,100,0.00,,,0.01,19.0,meteobridge,2018-05-23 11:30:00,
2018-05-23 07:36:00,58.1,58.1,30.03,NNE,23,6.0,8.0,100,0.00,,,0.01,28.0,meteobridge,2018-05-23 11:36:00,
2018-05-23 07:42:00,57.6,57.6,30.04,NW,305,0.0,2.0,100,0.00,,,0.01,32.0,meteobridge,2018-05-23 11:42:00,
2018-05-23 07:49:00,57.6,57.6,30.04,North,357,0.0,2.0,100,0.00,,,0.01,32.0,meteobridge,2018-05-23 11:49:00,
2018-05-23 07:55:00,57.6,57.6,30.04,North,0,2.0,5.0,100,0.00,,,0.01,35.0,meteobridge,2018-05-23 11:55:00,
2018-05-23 08:01:00,57.2,57.2,30.05,North,350,6.9,7.0,100,0.00,,,0.01,44.0,meteobridge,2018-05-23 12:01:00,
2018-05-23 08:07:00,57.0,57.0,30.05,North,359,0.0,3.0,100,0.00,,,0.01,53.0,meteobridge,2018-05-23 12:07:00,
2018-05-23 08:14:00,57.0,57.0,30.06,NE,37,0.9,5.0,100,0.00,,,0.01,49.0,meteobridge,2018-05-23 12:14:00,
2018-05-23 08:20:00,56.8,56.8,30.06,WNW,295,2.0,7.0,100,0.00,,,0.01,46.0,meteobridge,2018-05-23 12:20:00,
2018-05-23 08:26:00,56.7,56.7,30.06,NNW,346,0.0,6.0,100,0.00,,,0.01,53.0,meteobridge,2018-05-23 12:26:00,
2018-05-23 08:33:00,56.7,56.7,30.06,North,349,0.9,3.0,100,0.00,,,0.01,65.0,meteobridge,2018-05-23 12:33:00,
2018-05-23 08:39:00,56.5,56.5,30.06,North,0,0.9,5.0,100,0.00,,,0.01,86.0,meteobridge,2018-05-23 12:39:00,
2018-05-23 08:45:00,56.5,56.5,30.07,NNW,344,0.0,3.0,100,0.00,,,0.01,77.0,meteobridge,2018-05-23 12:45:00,
2018-05-23 08:52:00,56.5,56.5,30.07,North,359,2.0,3.0,100,0.00,,,0.01,81.0,meteobridge,2018-05-23 12:52:00,
2018-05-23 08:58:00,56.5,56.5,30.07,NNW,328,0.0,2.0,100,0.00,,,0.01,90.0,meteobridge,2018-05-23 12:58:00,
2018-05-23 09:05:00,56.7,56.7,30.07,North,6,0.0,3.0,100,0.00,,,0.01,91.0,meteobridge,2018-05-23 13:05:00,
2018-05-23 09:11:00,56.7,56.7,30.08,North,349,0.0,5.0,100,0.00,,,0.01,132.0,meteobridge,2018-05-23 13:11:00,
2018-05-23 09:17:00,56.5,56.5,30.08,North,352,0.0,3.0,100,0.00,,,0.01,134.0,meteobridge,2018-05-23 13:17:00,
2018-05-23 09:23:00,56.5,56.5,30.08,NNW,342,0.9,2.0,100,0.00,,,0.01,102.0,meteobridge,2018-05-23 13:23:00,
2018-05-23 09:29:00,56.3,56.3,30.09,North,4,0.0,1.0,100,0.00,,,0.01,88.0,meteobridge,2018-05-23 13:29:00,
2018-05-23 09:36:00,56.3,56.3,30.09,North,0,2.0,8.0,100,0.00,,,0.01,95.0,meteobridge,2018-05-23 13:36:00,
2018-05-23 09:42:00,55.9,55.6,30.09,North,8,0.0,2.0,99,0.00,,,0.01,86.0,meteobridge,2018-05-23 13:42:00,
2018-05-23 09:49:00,55.8,55.4,30.09,North,4,0.0,3.0,99,0.00,,,0.01,97.0,meteobridge,2018-05-23 13:49:00,
2018-05-23 09:55:00,55.9,55.6,30.09,North,6,0.0,3.0,99,0.00,,,0.01,113.0,meteobridge,2018-05-23 13:55:00,
2018-05-23 10:01:00,55.6,55.0,30.10,North,0,0.0,7.0,98,0.00,,,0.01,148.0,meteobridge,2018-05-23 14:01:00,